Time;durP1;ratioP1;P1;durP2;ratioP2;P2;SDS_P1;SDS_P2;PMS_P1;PMS_P2;Temp;Humidity;BMP_temperature;BMP_pressure;BME280_temperature;BME280_humidity;BME280_pressure;Samples;Min_cycle;Max_cycle;Signal;HPM_P1;HPM_P2
2021/11/15 00:00:08;;;;;;;15.52;12.20;;;;;;;5.51;100.00;101833.44;679926;28;4435;-55
2021/11/15 00:00:42;;;;;;;15.15;12.13;;;;;;;5.50;100.00;101831.69;680624;29;1063;-56
2021/11/15 00:01:06;;;;;;;15.68;12.18;;;;;;;5.51;100.00;101830.84;680549;29;1307;-55
2021/11/15 00:01:27;;;;;;;16.73;12.25;;;;;;;5.50;100.00;101827.41;680164;29;1275;-56
2021/11/15 00:01:50;;;;;;;16.25;12.40;;;;;;;5.51;100.00;101828.25;678194;29;3401;-52
2021/11/15 00:02:13;;;;;;;15.63;11.98;;;;;;;5.50;100.00;101832.59;677483;29;1282;-57
2021/11/15 00:02:34;;;;;;;17.75;12.60;;;;;;;5.49;100.00;101828.22;677635;29;1192;-53
2021/11/15 00:02:56;;;;;;;16.77;12.65;;;;;;;5.50;100.00;101836.88;677317;29;1125;-55
2021/11/15 00:03:18;;;;;;;16.45;12.38;;;;;;;5.50;100.00;101836.88;676866;29;4741;-56
2021/11/15 00:03:40;;;;;;;17.15;12.25;;;;;;;5.49;100.00;101835.13;678484;28;2137;-53
2021/11/15 00:04:01;;;;;;;17.38;12.32;;;;;;;5.49;100.00;101840.31;681491;28;1338;-57
2021/11/15 00:04:21;;;;;;;17.47;12.07;;;;;;;5.49;100.00;101835.13;680323;28;1977;-54
2021/11/15 00:04:42;;;;;;;16.20;11.50;;;;;;;5.49;100.00;101832.53;680218;28;3543;-53
2021/11/15 00:05:03;;;;;;;17.17;12.27;;;;;;;5.49;100.00;101841.19;680358;28;3386;-54
2021/11/15 00:05:23;;;;;;;18.00;12.88;;;;;;;5.48;100.00;101839.41;680674;29;1108;-57
2021/11/15 00:05:44;;;;;;;16.60;12.60;;;;;;;5.49;100.00;101838.59;681737;28;1596;-57
2021/11/15 00:06:04;;;;;;;17.30;12.67;;;;;;;5.49;100.00;101838.59;679403;28;4389;-55
2021/11/15 00:06:24;;;;;;;16.63;12.50;;;;;;;5.49;100.00;101836.00;681242;28;1394;-52
2021/11/15 00:06:45;;;;;;;17.80;12.30;;;;;;;5.50;100.00;101839.47;679438;29;1082;-54
2021/11/15 00:07:05;;;;;;;18.20;12.32;;;;;;;5.51;100.00;101841.22;680188;28;1179;-54
2021/11/15 00:07:26;;;;;;;16.07;12.30;;;;;;;5.50;100.00;101837.78;680747;29;1265;-56
2021/11/15 00:07:46;;;;;;;16.27;12.13;;;;;;;5.51;100.00;101838.63;680334;28;3113;-56
2021/11/15 00:08:07;;;;;;;17.80;12.23;;;;;;;5.51;100.00;101841.22;679562;29;1552;-55
2021/11/15 00:08:27;;;;;;;17.38;12.00;;;;;;;5.50;100.00;101837.78;681567;29;1087;-55
2021/11/15 00:08:47;;;;;;;17.43;12.57;;;;;;;5.51;100.00;101839.53;681460;28;1089;-55
2021/11/15 00:09:08;;;;;;;17.92;12.68;;;;;;;5.50;100.00;101837.78;679751;28;4408;-57
2021/11/15 00:09:30;;;;;;;17.88;12.65;;;;;;;5.51;100.00;101838.63;680524;29;1570;-53
2021/11/15 00:09:50;;;;;;;17.63;12.20;;;;;;;5.50;100.00;101836.88;680824;29;1511;-55
2021/11/15 00:10:15;;;;;;;16.38;11.93;;;;;;;5.50;100.00;101831.69;683528;28;1144;-57
2021/11/15 00:10:40;;;;;;;14.93;11.77;;;;;;;5.50;100.00;101834.28;683518;28;3406;-57
2021/11/15 00:11:01;;;;;;;16.17;12.57;;;;;;;5.51;100.00;101836.03;679580;29;2038;-53
2021/11/15 00:11:22;;;;;;;16.40;12.13;;;;;;;5.51;100.00;101833.44;682085;28;1272;-57
2021/11/15 00:11:42;;;;;;;17.13;12.65;;;;;;;5.51;100.00;101834.34;684109;28;1405;-57
2021/11/15 00:12:03;;;;;;;17.93;12.47;;;;;;;5.52;100.00;101837.81;682453;28;4519;-57
2021/11/15 00:12:23;;;;;;;18.15;12.70;;;;;;;5.52;100.00;101837.81;680061;29;1144;-57
2021/11/15 00:12:47;;;;;;;17.47;12.47;;;;;;;5.52;100.00;101837.81;680853;28;1294;-54
2021/11/15 00:13:08;;;;;;;16.70;12.50;;;;;;;5.53;100.00;101842.19;682419;28;1171;-56
2021/11/15 00:13:31;;;;;;;16.92;12.73;;;;;;;5.53;100.00;101837.88;682700;28;3245;-55
2021/11/15 00:13:51;;;;;;;15.60;12.38;;;;;;;5.54;100.00;101836.16;682690;28;3485;-55
2021/11/15 00:14:11;;;;;;;16.07;11.90;;;;;;;5.54;100.00;101846.53;683872;28;1563;-52
2021/11/15 00:14:32;;;;;;;16.10;11.82;;;;;;;5.53;100.00;101837.88;681431;28;1239;-57
2021/11/15 00:14:52;;;;;;;15.00;11.67;;;;;;;5.53;100.00;101837.88;681345;29;1085;-53
2021/11/15 00:15:13;;;;;;;15.27;11.85;;;;;;;5.55;100.00;101840.50;679258;28;4448;-56
2021/11/15 00:15:34;;;;;;;16.33;12.20;;;;;;;5.55;100.00;101843.09;681415;29;1366;-56
2021/11/15 00:15:54;;;;;;;16.65;12.65;;;;;;;5.54;100.00;101842.25;680839;29;1334;-54
2021/11/15 00:16:15;;;;;;;16.13;12.27;;;;;;;5.55;100.00;101846.59;680768;29;1078;-55
2021/11/15 00:16:35;;;;;;;17.27;12.80;;;;;;;5.55;100.00;101843.09;679754;28;3346;-56
2021/11/15 00:16:56;;;;;;;18.00;12.70;;;;;;;5.55;100.00;101836.22;679891;28;1114;-57
2021/11/15 00:17:16;;;;;;;18.88;12.77;;;;;;;5.55;100.00;101845.69;680302;28;1143;-55
2021/11/15 00:17:37;;;;;;;19.00;12.73;;;;;;;5.55;100.00;101840.50;680014;29;1509;-55
2021/11/15 00:17:57;;;;;;;17.33;12.45;;;;;;;5.56;100.00;101843.16;679695;28;4457;-53
2021/11/15 00:18:18;;;;;;;16.57;12.20;;;;;;;5.55;100.00;101846.59;680660;29;1105;-57
2021/11/15 00:18:39;;;;;;;18.15;12.57;;;;;;;5.56;100.00;101844.88;681239;28;1428;-52
2021/11/15 00:19:00;;;;;;;18.05;12.45;;;;;;;5.56;100.00;101842.28;680185;28;1331;-57
2021/11/15 00:19:20;;;;;;;16.65;11.77;;;;;;;5.55;100.00;101841.41;680577;28;1328;-56
2021/11/15 00:19:42;;;;;;;15.48;11.43;;;;;;;5.56;100.00;101845.75;680570;28;3644;-55
2021/11/15 00:20:03;;;;;;;14.73;11.40;;;;;;;5.56;100.00;101843.16;680155;28;1267;-54
2021/11/15 00:20:24;;;;;;;15.07;11.63;;;;;;;5.56;100.00;101844.88;679758;28;1237;-55
2021/11/15 00:20:44;;;;;;;15.77;11.90;;;;;;;5.56;100.00;101847.47;680847;28;1293;-57
2021/11/15 00:21:05;;;;;;;16.58;11.80;;;;;;;5.57;100.00;101844.06;679539;28;4546;-54
2021/11/15 00:21:25;;;;;;;16.90;12.00;;;;;;;5.58;100.00;101841.50;680677;29;1109;-57
2021/11/15 00:21:46;;;;;;;15.10;11.98;;;;;;;5.60;100.00;101841.56;680089;29;1193;-54
2021/11/15 00:22:06;;;;;;;15.13;11.82;;;;;;;5.60;100.00;101838.97;679524;28;1108;-55
2021/11/15 00:22:27;;;;;;;16.10;11.70;;;;;;;5.62;100.00;101847.66;680097;28;3045;-55
2021/11/15 00:22:47;;;;;;;19.50;12.50;;;;;;;5.62;100.00;101838.19;682654;28;4360;-56
2021/11/15 00:23:08;;;;;;;18.83;12.40;;;;;;;5.65;100.00;101841.72;682874;28;1020;-55
2021/11/15 00:23:28;;;;;;;17.42;12.07;;;;;;;5.64;100.00;101835.66;682140;28;1537;-57
2021/11/15 00:23:49;;;;;;;19.67;11.93;;;;;;;5.64;100.00;101840.84;682104;28;1547;-55
2021/11/15 00:24:09;;;;;;;15.75;11.48;;;;;;;5.64;100.00;101846.03;682609;28;4574;-57
2021/11/15 00:24:31;;;;;;;16.55;12.13;;;;;;;5.63;100.00;101842.56;683379;28;1132;-56
2021/11/15 00:24:51;;;;;;;17.30;12.35;;;;;;;5.65;100.00;101841.72;683107;28;1263;-56
2021/11/15 00:25:12;;;;;;;17.73;12.50;;;;;;;5.62;100.00;101838.19;683486;28;1200;-57
2021/11/15 00:25:32;;;;;;;16.90;12.15;;;;;;;5.64;100.00;101840.84;681598;28;3988;-54
2021/11/15 00:25:53;;;;;;;18.42;12.50;;;;;;;5.63;100.00;101839.06;680916;28;1334;-55
2021/11/15 00:26:14;;;;;;;17.83;12.33;;;;;;;5.63;100.00;101833.88;679454;29;1303;-53
2021/11/15 00:26:34;;;;;;;18.33;12.52;;;;;;;5.63;100.00;101841.66;681259;29;1747;-56
2021/11/15 00:26:54;;;;;;;18.15;12.50;;;;;;;5.62;100.00;101838.19;676957;29;1252;-56
2021/11/15 00:27:15;;;;;;;18.40;13.00;;;;;;;5.62;100.00;101835.59;674824;28;4252;-53
2021/11/15 00:27:35;;;;;;;17.83;12.57;;;;;;;5.63;100.00;101839.06;675586;29;1404;-55
2021/11/15 00:27:55;;;;;;;16.83;12.17;;;;;;;5.61;100.00;101836.41;674958;29;1105;-55
2021/11/15 00:28:16;;;;;;;17.98;12.15;;;;;;;5.62;100.00;101837.28;677642;29;1312;-56
2021/11/15 00:28:38;;;;;;;17.97;12.90;;;;;;;5.61;100.00;101838.16;680770;28;3583;-55
2021/11/15 00:28:58;;;;;;;17.85;13.15;;;;;;;5.60;100.00;101834.66;683805;28;1356;-56
2021/11/15 00:29:19;;;;;;;16.38;12.70;;;;;;;5.60;100.00;101832.06;682788;28;1601;-56
2021/11/15 00:29:39;;;;;;;16.10;12.17;;;;;;;5.61;100.00;101836.41;683882;28;1287;-54
2021/11/15 00:30:00;;;;;;;15.82;11.75;;;;;;;5.61;100.00;101832.97;683215;28;4626;-54
2021/11/15 00:30:21;;;;;;;16.67;11.90;;;;;;;5.61;100.00;101835.56;680468;29;1260;-56
2021/11/15 00:30:41;;;;;;;16.90;12.20;;;;;;;5.61;100.00;101830.38;680895;29;1189;-56
2021/11/15 00:31:02;;;;;;;17.67;12.32;;;;;;;5.60;100.00;101839.84;681464;28;1391;-57
2021/11/15 00:31:24;;;;;;;16.90;12.33;;;;;;;5.60;100.00;101834.66;682688;28;3254;-54
2021/11/15 00:31:44;;;;;;;16.80;12.43;;;;;;;5.62;100.00;101839.88;682158;28;3874;-55
2021/11/15 00:32:05;;;;;;;16.83;12.60;;;;;;;5.60;100.00;101837.25;680379;28;1434;-53
2021/11/15 00:32:27;;;;;;;17.85;12.60;;;;;;;5.62;100.00;101837.28;682241;28;1084;-55
2021/11/15 00:32:48;;;;;;;17.67;12.05;;;;;;;5.60;100.00;101828.59;679838;29;1348;-53
2021/11/15 00:33:08;;;;;;;17.57;11.93;;;;;;;5.61;100.00;101830.38;679164;28;4368;-55
2021/11/15 00:33:28;;;;;;;16.90;12.33;;;;;;;5.61;100.00;101830.38;679580;29;1148;-56
2021/11/15 00:33:49;;;;;;;17.70;12.27;;;;;;;5.60;100.00;101837.25;680531;29;1148;-55
2021/11/15 00:34:10;;;;;;;18.35;12.57;;;;;;;5.61;100.00;101836.41;679903;29;1168;-54
2021/11/15 00:34:30;;;;;;;16.48;11.57;;;;;;;5.61;100.00;101831.22;680382;29;3672;-55
2021/11/15 00:34:50;;;;;;;16.07;11.87;;;;;;;5.62;100.00;101834.69;680913;29;1501;-55
2021/11/15 00:35:13;;;;;;;16.40;12.05;;;;;;;5.61;100.00;101831.22;680664;28;1330;-53
2021/11/15 00:35:33;;;;;;;16.65;11.73;;;;;;;5.61;100.00;101833.81;681318;28;1097;-54
2021/11/15 00:35:54;;;;;;;16.60;11.68;;;;;;;5.61;100.00;101830.38;680191;29;1435;-52
2021/11/15 00:36:15;;;;;;;16.23;11.83;;;;;;;5.60;100.00;101837.25;679421;28;4598;-56
2021/11/15 00:36:35;;;;;;;16.52;12.05;;;;;;;5.60;100.00;101834.66;680491;29;1090;-54
2021/11/15 00:36:55;;;;;;;16.37;11.77;;;;;;;5.61;100.00;101835.56;680501;29;1375;-53
2021/11/15 00:37:18;;;;;;;15.60;11.82;;;;;;;5.62;100.00;101832.09;680687;28;3255;-57
2021/11/15 00:37:39;;;;;;;14.85;11.68;;;;;;;5.62;100.00;101832.09;682651;28;3650;-56
2021/11/15 00:37:59;;;;;;;15.25;11.20;;;;;;;5.62;100.00;101834.69;682641;28;1181;-51
2021/11/15 00:38:20;;;;;;;16.60;11.67;;;;;;;5.63;100.00;101833.88;681550;28;989;-56
2021/11/15 00:38:40;;;;;;;15.77;11.50;;;;;;;5.62;100.00;101839.88;682266;28;1149;-55
2021/11/15 00:39:03;;;;;;;17.35;11.98;;;;;;;5.63;100.00;101833.88;678656;28;5041;-56
2021/11/15 00:39:23;;;;;;;16.60;12.02;;;;;;;5.63;100.00;101834.78;679088;29;1053;-53
2021/11/15 00:39:44;;;;;;;15.98;12.15;;;;;;;5.65;100.00;101831.34;680024;29;1140;-55
2021/11/15 00:40:10;;;;;;;16.17;12.23;;;;;;;5.64;100.00;101830.47;680077;29;1319;-52
2021/11/15 00:40:30;;;;;;;17.33;12.20;;;;;;;5.64;100.00;101830.47;680434;29;3581;-56
2021/11/15 00:40:51;;;;;;;17.75;12.10;;;;;;;5.64;100.00;101833.06;680252;29;1036;-55
2021/11/15 00:41:11;;;;;;;18.40;12.23;;;;;;;5.64;100.00;101835.66;676740;29;1125;-52
2021/11/15 00:41:32;;;;;;;16.63;11.88;;;;;;;5.66;100.00;101833.09;677213;29;1196;-57
2021/11/15 00:41:52;;;;;;;16.63;11.90;;;;;;;5.66;100.00;101836.56;677814;29;1106;-56
2021/11/15 00:42:13;;;;;;;17.98;12.27;;;;;;;5.66;100.00;101833.97;676375;28;4420;-51
2021/11/15 00:42:33;;;;;;;17.30;11.93;;;;;;;5.66;100.00;101836.56;677028;29;1023;-57
2021/11/15 00:42:54;;;;;;;17.13;11.93;;;;;;;5.65;100.00;101829.63;677248;29;1080;-55
2021/11/15 00:43:15;;;;;;;16.33;11.70;;;;;;;5.66;100.00;101836.56;682837;28;3122;-55
2021/11/15 00:43:36;;;;;;;15.98;11.57;;;;;;;5.66;100.00;101831.38;683051;28;3624;-56
2021/11/15 00:43:56;;;;;;;16.13;12.13;;;;;;;5.67;100.00;101835.75;680620;29;1079;-53
2021/11/15 00:44:17;;;;;;;17.00;12.27;;;;;;;5.67;100.00;101833.16;679774;28;1907;-56
2021/11/15 00:44:37;;;;;;;16.92;11.95;;;;;;;5.67;100.00;101837.47;680325;29;1132;-54
2021/11/15 00:44:58;;;;;;;16.53;11.77;;;;;;;5.67;100.00;101830.56;678654;28;4474;-54
2021/11/15 00:45:18;;;;;;;16.80;11.82;;;;;;;5.67;100.00;101830.56;678891;28;1062;-55
2021/11/15 00:45:39;;;;;;;17.23;12.03;;;;;;;5.67;100.00;101833.16;679765;29;1288;-54
2021/11/15 00:46:00;;;;;;;18.38;12.20;;;;;;;5.67;100.00;101833.16;680641;28;1227;-54
2021/11/15 00:46:21;;;;;;;16.40;11.52;;;;;;;5.67;100.00;101834.88;681351;28;3699;-56
2021/11/15 00:46:41;;;;;;;13.88;10.68;;;;;;;5.66;100.00;101831.38;680498;29;2694;-56
2021/11/15 00:47:03;;;;;;;14.80;10.73;;;;;;;5.67;100.00;101832.28;681122;29;1287;-53
2021/11/15 00:47:23;;;;;;;15.10;11.65;;;;;;;5.67;100.00;101834.88;680907;28;1322;-52
2021/11/15 00:47:45;;;;;;;15.85;11.57;;;;;;;5.69;100.00;101833.19;683859;28;1339;-54
2021/11/15 00:48:06;;;;;;;15.48;10.88;;;;;;;5.67;100.00;101830.56;682721;28;4387;-53
2021/11/15 00:48:27;;;;;;;15.30;11.10;;;;;;;5.67;100.00;101835.75;683914;28;1085;-52
2021/11/15 00:48:48;;;;;;;15.63;11.20;;;;;;;5.67;100.00;101833.16;683325;28;1021;-55
2021/11/15 00:49:08;;;;;;;14.77;11.10;;;;;;;5.69;100.00;101839.28;679950;28;3124;-53
2021/11/15 00:49:29;;;;;;;14.63;11.20;;;;;;;5.68;100.00;101837.53;680767;29;3594;-54
2021/11/15 00:49:49;;;;;;;15.88;11.63;;;;;;;5.68;100.00;101828.88;680749;29;1397;-53
2021/11/15 00:50:13;;;;;;;16.87;11.53;;;;;;;5.68;100.00;101832.34;680676;28;1470;-52
2021/11/15 00:50:33;;;;;;;17.38;12.30;;;;;;;5.68;100.00;101832.34;680764;29;1003;-55
2021/11/15 00:50:54;;;;;;;15.73;11.93;;;;;;;5.68;100.00;101829.75;681413;29;1164;-53
2021/11/15 00:51:14;;;;;;;15.10;11.33;;;;;;;5.68;100.00;101831.47;679723;28;4446;-54
2021/11/15 00:51:35;;;;;;;15.55;10.73;;;;;;;5.67;100.00;101830.56;680596;28;1306;-54
2021/11/15 00:51:55;;;;;;;14.90;10.93;;;;;;;5.67;100.00;101825.38;681846;28;1101;-55
2021/11/15 00:52:16;;;;;;;14.93;11.20;;;;;;;5.68;100.00;101836.66;681457;28;3497;-55
2021/11/15 00:52:37;;;;;;;15.53;11.17;;;;;;;5.69;100.00;101828.91;680614;28;3782;-57
2021/11/15 00:52:58;;;;;;;15.63;11.63;;;;;;;5.69;100.00;101825.41;680860;28;1006;-54
2021/11/15 00:53:18;;;;;;;15.40;11.60;;;;;;;5.69;100.00;101828.91;681477;28;1686;-56
2021/11/15 00:53:38;;;;;;;14.57;10.85;;;;;;;5.69;100.00;101833.19;681155;28;1034;-55
2021/11/15 00:53:59;;;;;;;15.30;11.27;;;;;;;5.69;100.00;101831.50;679869;28;4397;-53
2021/11/15 00:54:19;;;;;;;15.50;10.93;;;;;;;5.69;100.00;101828.00;680636;28;1066;-52
2021/11/15 00:54:40;;;;;;;15.33;11.00;;;;;;;5.69;100.00;101834.09;682052;28;1236;-53
2021/11/15 00:55:00;;;;;;;15.82;11.15;;;;;;;5.71;100.00;101836.75;681119;28;2344;-54
2021/11/15 00:55:21;;;;;;;15.20;11.40;;;;;;;5.70;100.00;101833.25;680937;29;2373;-57
2021/11/15 00:55:42;;;;;;;15.32;11.20;;;;;;;5.72;100.00;101838.50;683906;28;1259;-56
2021/11/15 00:56:02;;;;;;;15.82;11.38;;;;;;;5.71;100.00;101832.44;682362;28;1287;-54
2021/11/15 00:56:23;;;;;;;16.40;11.80;;;;;;;5.73;100.00;101835.97;683075;28;4007;-54
2021/11/15 00:56:43;;;;;;;16.67;11.63;;;;;;;5.72;100.00;101828.09;683205;28;1187;-54
2021/11/15 00:57:05;;;;;;;15.65;11.00;;;;;;;5.71;100.00;101837.63;682746;28;5162;-56
2021/11/15 00:57:25;;;;;;;15.52;11.18;;;;;;;5.72;100.00;101834.19;682561;28;1586;-56
2021/11/15 00:57:46;;;;;;;16.48;11.77;;;;;;;5.73;100.00;101838.56;681327;28;1030;-52
2021/11/15 00:58:07;;;;;;;16.27;11.43;;;;;;;5.73;100.00;101832.47;680746;28;3108;-54
2021/11/15 00:58:28;;;;;;;15.63;11.40;;;;;;;5.72;100.00;101830.69;681267;29;3676;-54
2021/11/15 00:58:49;;;;;;;16.13;11.93;;;;;;;5.72;100.00;101829.00;682768;28;1479;-52
2021/11/15 00:59:10;;;;;;;15.10;11.25;;;;;;;5.72;100.00;101836.78;682197;28;1351;-55
2021/11/15 00:59:32;;;;;;;16.40;11.10;;;;;;;5.72;100.00;101836.78;683257;28;1301;-56
2021/11/15 00:59:52;;;;;;;15.85;11.30;;;;;;;5.73;100.00;101833.38;684538;28;1125;-56
2021/11/15 01:00:17;;;;;;;15.50;11.60;;;;;;;5.72;100.00;101829.00;685032;28;4393;-51
2021/11/15 01:00:41;;;;;;;15.85;11.18;;;;;;;5.74;100.00;101837.72;684840;28;1553;-56
2021/11/15 01:01:01;;;;;;;15.70;11.52;;;;;;;5.73;100.00;101833.38;680673;28;2052;-56
2021/11/15 01:01:21;;;;;;;16.08;10.90;;;;;;;5.73;100.00;101833.38;681072;28;3806;-55
2021/11/15 01:01:42;;;;;;;17.20;11.43;;;;;;;5.73;100.00;101829.88;680534;29;1258;-52
2021/11/15 01:02:03;;;;;;;15.33;11.53;;;;;;;5.73;100.00;101833.38;680644;29;1240;-53
2021/11/15 01:02:23;;;;;;;15.50;11.50;;;;;;;5.74;100.00;101835.13;680952;28;1099;-55
2021/11/15 01:02:44;;;;;;;15.27;11.35;;;;;;;5.74;100.00;101829.94;680335;29;1244;-56
2021/11/15 01:03:07;;;;;;;14.97;11.47;;;;;;;5.73;100.00;101830.78;676451;28;4491;-54
2021/11/15 01:03:27;;;;;;;16.35;11.82;;;;;;;5.73;100.00;101824.69;680522;29;1011;-56
2021/11/15 01:03:48;;;;;;;16.43;11.50;;;;;;;5.74;100.00;101832.53;679297;28;1070;-53
2021/11/15 01:04:10;;;;;;;15.35;11.10;;;;;;;5.74;100.00;101829.94;680556;28;2327;-56
2021/11/15 01:04:31;;;;;;;14.82;11.13;;;;;;;5.74;100.00;101829.94;680155;29;1448;-53
2021/11/15 01:04:51;;;;;;;16.10;11.67;;;;;;;5.75;100.00;101829.09;680725;28;1293;-56
2021/11/15 01:05:12;;;;;;;15.77;11.45;;;;;;;5.75;100.00;101825.66;679731;28;1133;-54
2021/11/15 01:05:34;;;;;;;15.07;11.27;;;;;;;5.74;100.00;101827.34;681041;29;1093;-56
2021/11/15 01:05:55;;;;;;;16.45;11.57;;;;;;;5.75;100.00;101826.50;681531;28;1133;-54
2021/11/15 01:06:16;;;;;;;15.77;11.30;;;;;;;5.75;100.00;101828.25;680958;28;4579;-52
2021/11/15 01:06:36;;;;;;;15.55;11.27;;;;;;;5.74;100.00;101832.53;680485;28;1200;-54
2021/11/15 01:06:56;;;;;;;16.27;11.13;;;;;;;5.75;100.00;101833.44;680165;28;3202;-54
2021/11/15 01:07:17;;;;;;;17.03;11.50;;;;;;;5.75;100.00;101825.66;679746;29;3825;-56
2021/11/15 01:07:37;;;;;;;17.10;11.55;;;;;;;5.74;100.00;101822.16;680443;29;1175;-52
2021/11/15 01:07:58;;;;;;;15.53;11.37;;;;;;;5.76;100.00;101829.97;681242;28;1009;-53
2021/11/15 01:08:18;;;;;;;15.30;11.73;;;;;;;5.75;100.00;101831.69;681300;28;934;-54
2021/11/15 01:08:39;;;;;;;15.23;11.63;;;;;;;5.76;100.00;101829.97;680888;28;1255;-54
2021/11/15 01:08:59;;;;;;;16.10;11.73;;;;;;;5.75;100.00;101818.72;680646;28;4693;-54
2021/11/15 01:09:21;;;;;;;16.67;11.82;;;;;;;5.75;100.00;101818.72;682449;28;1189;-55
2021/11/15 01:09:41;;;;;;;16.17;11.23;;;;;;;5.75;100.00;101830.84;683385;28;1435;-57
2021/11/15 01:10:04;;;;;;;16.95;11.38;;;;;;;5.76;100.00;101824.78;683297;28;3380;-54
2021/11/15 01:10:25;;;;;;;17.13;11.60;;;;;;;5.75;100.00;101825.66;683393;28;1367;-54
2021/11/15 01:10:47;;;;;;;16.73;11.30;;;;;;;5.75;100.00;101829.09;683731;28;1170;-55
2021/11/15 01:11:08;;;;;;;15.68;11.38;;;;;;;5.76;100.00;101829.97;681241;28;1037;-52
2021/11/15 01:11:28;;;;;;;16.42;11.85;;;;;;;5.76;100.00;101824.78;679305;29;2716;-56
2021/11/15 01:11:51;;;;;;;15.80;11.30;;;;;;;5.76;100.00;101830.88;681046;28;1720;-56
2021/11/15 01:12:13;;;;;;;16.20;11.50;;;;;;;5.75;100.00;101829.09;682001;28;4453;-54
2021/11/15 01:12:34;;;;;;;14.67;11.00;;;;;;;5.74;100.00;101822.16;684558;28;1192;-55
2021/11/15 01:12:55;;;;;;;14.73;11.57;;;;;;;5.75;100.00;101829.09;683011;28;3223;-54
2021/11/15 01:13:15;;;;;;;15.90;11.85;;;;;;;5.76;100.00;101824.78;685697;28;3715;-56
2021/11/15 01:13:36;;;;;;;16.33;11.60;;;;;;;5.76;100.00;101825.69;683799;28;1455;-55
2021/11/15 01:13:57;;;;;;;18.53;11.73;;;;;;;5.76;100.00;101828.28;684210;28;1159;-54
2021/11/15 01:14:18;;;;;;;17.40;11.87;;;;;;;5.76;100.00;101827.38;683943;28;1284;-55
2021/11/15 01:14:38;;;;;;;15.40;11.43;;;;;;;5.76;100.00;101825.69;684582;28;1085;-55
2021/11/15 01:14:59;;;;;;;16.92;11.88;;;;;;;5.75;100.00;101823.91;683097;28;4666;-55
2021/11/15 01:15:23;;;;;;;16.20;11.60;;;;;;;5.75;100.00;101829.09;681302;28;1181;-56
2021/11/15 01:15:43;;;;;;;17.48;11.82;;;;;;;5.75;100.00;101826.50;683484;28;1057;-52
2021/11/15 01:16:06;;;;;;;16.17;11.82;;;;;;;5.75;100.00;101821.31;681901;28;3305;-54
2021/11/15 01:16:26;;;;;;;15.82;11.35;;;;;;;5.75;100.00;101823.03;681165;28;1245;-55
2021/11/15 01:16:47;;;;;;;14.33;11.00;;;;;;;5.75;100.00;101823.91;680195;29;1492;-53
2021/11/15 01:17:10;;;;;;;15.80;10.98;;;;;;;5.75;100.00;101823.91;679875;29;1296;-53
2021/11/15 01:17:30;;;;;;;16.63;11.43;;;;;;;5.75;100.00;101829.09;680420;29;1127;-54
2021/11/15 01:17:52;;;;;;;16.13;11.20;;;;;;;5.77;100.00;101822.28;680046;29;983;-54
2021/11/15 01:18:12;;;;;;;15.52;11.23;;;;;;;5.77;100.00;101824.88;678174;29;5492;-56
2021/11/15 01:18:33;;;;;;;15.40;11.17;;;;;;;5.78;100.00;101823.16;678299;29;1102;-54
2021/11/15 01:18:54;;;;;;;15.50;10.90;;;;;;;5.79;100.00;101824.91;677417;29;3261;-52
2021/11/15 01:19:15;;;;;;;16.07;11.43;;;;;;;5.78;100.00;101829.19;679951;28;3507;-53
2021/11/15 01:19:35;;;;;;;16.13;11.45;;;;;;;5.77;100.00;101824.88;683613;28;1288;-55
2021/11/15 01:19:56;;;;;;;16.03;11.60;;;;;;;5.79;100.00;101822.31;683749;28;1187;-54
2021/11/15 01:20:20;;;;;;;16.37;11.23;;;;;;;5.78;100.00;101818.81;685803;28;1136;-57
2021/11/15 01:20:40;;;;;;;16.13;11.20;;;;;;;5.77;100.00;101824.88;686518;28;1105;-54
2021/11/15 01:21:01;;;;;;;16.75;11.77;;;;;;;5.77;100.00;101822.28;683668;28;4832;-54
2021/11/15 01:21:27;;;;;;;15.38;10.95;;;;;;;5.77;100.00;101817.09;680806;29;1308;-53
2021/11/15 01:21:48;;;;;;;16.15;11.50;;;;;;;5.77;100.00;101817.09;680208;28;3417;-56
2021/11/15 01:22:08;;;;;;;14.65;11.07;;;;;;;5.77;100.00;101811.00;680276;29;3959;-55
2021/11/15 01:22:29;;;;;;;15.83;11.20;;;;;;;5.77;100.00;101811.00;680976;29;1503;-54
2021/11/15 01:22:49;;;;;;;15.40;11.10;;;;;;;5.77;100.00;101811.91;681441;29;1404;-55
2021/11/15 01:23:10;;;;;;;15.68;11.43;;;;;;;5.77;100.00;101816.19;680390;28;1038;-56
2021/11/15 01:23:30;;;;;;;17.00;11.32;;;;;;;5.78;100.00;101816.22;681387;29;1087;-52
2021/11/15 01:23:51;;;;;;;15.17;11.00;;;;;;;5.77;100.00;101811.00;678631;29;1077;-56
2021/11/15 01:24:11;;;;;;;17.02;11.80;;;;;;;5.77;100.00;101817.09;680813;28;5716;-54
2021/11/15 01:24:32;;;;;;;16.83;11.87;;;;;;;5.76;100.00;101809.22;681443;29;1095;-54
2021/11/15 01:24:52;;;;;;;16.60;11.50;;;;;;;5.76;100.00;101811.81;680843;28;3517;-54
2021/11/15 01:25:13;;;;;;;16.95;11.55;;;;;;;5.76;100.00;101810.13;681102;29;1243;-55
2021/11/15 01:25:36;;;;;;;15.70;10.73;;;;;;;5.76;100.00;101810.13;681113;29;1212;-54
2021/11/15 01:25:57;;;;;;;16.05;11.10;;;;;;;5.76;100.00;101807.53;685618;28;2043;-53
2021/11/15 01:26:17;;;;;;;15.80;11.07;;;;;;;5.77;100.00;101808.41;686478;28;1322;-56
2021/11/15 01:26:38;;;;;;;15.55;10.82;;;;;;;5.77;100.00;101816.19;686126;28;1214;-56
2021/11/15 01:26:59;;;;;;;17.15;11.60;;;;;;;5.76;100.00;101809.22;682659;28;4815;-53
2021/11/15 01:27:19;;;;;;;17.40;11.93;;;;;;;5.76;100.00;101809.22;684070;28;1133;-52
2021/11/15 01:27:40;;;;;;;16.50;11.00;;;;;;;5.76;100.00;101810.13;683159;28;2094;-53
2021/11/15 01:28:01;;;;;;;15.75;10.90;;;;;;;5.76;100.00;101804.94;681445;28;3767;-54
2021/11/15 01:28:21;;;;;;;16.70;11.27;;;;;;;5.75;100.00;101803.16;680880;28;1137;-55
2021/11/15 01:28:42;;;;;;;15.27;11.20;;;;;;;5.77;100.00;101803.22;680413;29;1375;-53
2021/11/15 01:29:02;;;;;;;16.10;11.35;;;;;;;5.77;100.00;101806.69;679843;29;1061;-54
2021/11/15 01:29:23;;;;;;;16.60;11.27;;;;;;;5.77;100.00;101805.81;681099;28;1076;-56
2021/11/15 01:29:45;;;;;;;15.10;10.95;;;;;;;5.77;100.00;101800.59;682043;28;1169;-55
2021/11/15 01:30:10;;;;;;;14.95;11.00;;;;;;;5.77;100.00;101801.50;680338;28;4599;-53
2021/11/15 01:30:30;;;;;;;16.15;10.93;;;;;;;5.77;100.00;101808.41;680765;29;1022;-53
2021/11/15 01:30:51;;;;;;;15.15;10.70;;;;;;;5.76;100.00;101804.94;680782;28;3809;-54
2021/11/15 01:31:11;;;;;;;14.30;10.83;;;;;;;5.77;100.00;101804.09;680794;29;1421;-55
2021/11/15 01:31:32;;;;;;;16.08;11.00;;;;;;;5.77;100.00;101805.81;681091;28;1216;-56
2021/11/15 01:31:56;;;;;;;17.13;11.20;;;;;;;5.77;100.00;101806.69;680476;28;1058;-57
2021/11/15 01:32:17;;;;;;;14.45;11.20;;;;;;;5.77;100.00;101806.69;679638;29;982;-56
2021/11/15 01:32:39;;;;;;;14.07;10.90;;;;;;;5.77;100.00;101805.81;681536;29;1097;-55
2021/11/15 01:33:00;;;;;;;15.15;11.07;;;;;;;5.76;100.00;101807.53;680030;28;4455;-58
2021/11/15 01:33:23;;;;;;;14.30;10.73;;;;;;;5.76;100.00;101799.75;682380;28;1267;-56
2021/11/15 01:33:43;;;;;;;15.52;10.75;;;;;;;5.77;100.00;101801.50;681794;28;4236;-56
2021/11/15 01:34:07;;;;;;;15.97;11.13;;;;;;;5.76;100.00;101804.94;683320;28;1349;-57
2021/11/15 01:34:31;;;;;;;14.68;10.85;;;;;;;5.78;100.00;101805.84;682885;28;1280;-58
2021/11/15 01:34:51;;;;;;;16.08;11.57;;;;;;;5.79;100.00;101796.38;682917;28;1259;-57
2021/11/15 01:35:12;;;;;;;18.70;11.10;;;;;;;5.79;100.00;101797.25;681896;28;1283;-58
2021/11/15 01:35:33;;;;;;;17.48;10.70;;;;;;;5.80;100.00;101803.31;681367;28;1398;-55
2021/11/15 01:35:53;;;;;;;16.38;11.25;;;;;;;5.79;100.00;101797.25;680822;29;1188;-56
2021/11/15 01:36:14;;;;;;;17.23;11.13;;;;;;;5.80;100.00;101798.13;681342;28;4412;-54
2021/11/15 01:36:34;;;;;;;17.50;11.30;;;;;;;5.80;100.00;101796.41;680593;28;3706;-53
2021/11/15 01:36:55;;;;;;;17.17;11.25;;;;;;;5.78;100.00;101798.06;681323;28;2373;-54
2021/11/15 01:37:15;;;;;;;15.70;11.03;;;;;;;5.78;100.00;101798.06;679766;28;1242;-56
2021/11/15 01:37:38;;;;;;;15.25;11.40;;;;;;;5.78;100.00;101792.00;681272;28;992;-54